Terminal Aerodrome Forecast
Issued by NWS

Home | Current Version | Previous Version | Text Only | Print | Product List | Glossary On
Versions: 1 2 3 4 5 6 7 8 9 10 11 12 13 14 15
000
FTUS44 KLZK 251700
TAFLIT
TAF
KLIT 251728Z 2518/2618 19010G20KT P6SM SCT250
     FM260000 16008KT P6SM SCT020 SCT250
     FM261000 16008KT P6SM BKN020=

USA.gov is the U.S. government's official web portal to all federal, state and local government web resources and services.